Svendborg, Denmark
Current Conditions -  °F | °C
As of 4:50 PM on Sunday 23 Nov 2014 (Local Time) from EKAV Reporting Station
Overcast Overcast  
Wind Chill: 39°   Ceiling: 900
Heat Index: 48°   Visibility: 6mi
Dew Point: 43°   Wind: 36mph
Humidity: 82%   Direction: 140°SE
Pressure: 30.09"   Gusts: 48mph
Location:  55.06°N, 10.61°E
Report Text: EKAV 231550Z AUTO 14031G42KT 9999NDV OVC009/// 09/06 Q1019
Loading
Personal Weather Stations






























Interactive Weather Map New forecast layout! Learn more

10-Day Weather Forecast

Advertisements
Track Severe Weather on mobile